Terminal Aerodrome Forecast
Issued by NWS Topeka, KS

Home | Current Version | Previous Version | Text Only | Print | Product List | Glossary On
Versions: 1 2 3 4 5 6 7 8 9 10 11 12 13 14 15
109
FTUS43 KTOP 240654 AAA
TAFTOP
TAF AMD
KTOP 240654Z 2407/2506 31011KT P6SM SCT012 BKN035
      TEMPO 2407/2409 BKN012
     FM240900 31014G23KT P6SM SCT008 BKN012
     FM241900 30018G27KT P6SM VCSH BKN015
     FM250000 32013KT P6SM OVC025
     FM250300 32012G22KT P6SM OVC035=

USA.gov is the U.S. government's official web portal to all federal, state and local government web resources and services.